sensor_id;sensor_type;location;lat;lon;timestamp;P1;durP1;ratioP1;P2;durP2;ratioP2
67528;SDS011;54366;51.980;5.856;2022-12-08T00:00:00;4.90;;;4.05;;
67528;SDS011;54366;51.980;5.856;2022-12-08T00:02:37;4.70;;;3.83;;
67528;SDS011;54366;51.980;5.856;2022-12-08T00:05:03;5.95;;;4.70;;
67528;SDS011;54366;51.980;5.856;2022-12-08T00:10:33;4.77;;;4.30;;
67528;SDS011;54366;51.980;5.856;2022-12-08T00:12:59;6.47;;;5.10;;
67528;SDS011;54366;51.980;5.856;2022-12-08T00:15:25;5.90;;;4.78;;
67528;SDS011;54366;51.980;5.856;2022-12-08T00:17:51;6.70;;;5.15;;
67528;SDS011;54366;51.980;5.856;2022-12-08T00:20:18;5.53;;;4.10;;
67528;SDS011;54366;51.980;5.856;2022-12-08T00:22:44;4.57;;;4.10;;
67528;SDS011;54366;51.980;5.856;2022-12-08T00:25:10;5.28;;;4.60;;
67528;SDS011;54366;51.980;5.856;2022-12-08T00:27:36;5.72;;;4.93;;
67528;SDS011;54366;51.980;5.856;2022-12-08T00:30:03;5.13;;;4.63;;
67528;SDS011;54366;51.980;5.856;2022-12-08T00:32:30;5.43;;;4.57;;
67528;SDS011;54366;51.980;5.856;2022-12-08T00:34:56;5.45;;;4.82;;
67528;SDS011;54366;51.980;5.856;2022-12-08T00:37:22;5.30;;;4.78;;
67528;SDS011;54366;51.980;5.856;2022-12-08T00:39:49;5.78;;;4.43;;
67528;SDS011;54366;51.980;5.856;2022-12-08T00:42:15;4.80;;;4.13;;
67528;SDS011;54366;51.980;5.856;2022-12-08T00:44:42;5.00;;;3.97;;
67528;SDS011;54366;51.980;5.856;2022-12-08T00:47:10;4.45;;;3.75;;
67528;SDS011;54366;51.980;5.856;2022-12-08T00:49:37;4.20;;;3.60;;
67528;SDS011;54366;51.980;5.856;2022-12-08T00:52:03;3.85;;;3.45;;
67528;SDS011;54366;51.980;5.856;2022-12-08T00:54:30;3.45;;;3.00;;
67528;SDS011;54366;51.980;5.856;2022-12-08T00:56:56;4.88;;;3.60;;
67528;SDS011;54366;51.980;5.856;2022-12-08T00:59:22;4.43;;;3.10;;
67528;SDS011;54366;51.980;5.856;2022-12-08T01:01:49;3.85;;;3.22;;
67528;SDS011;54366;51.980;5.856;2022-12-08T01:04:16;3.80;;;3.00;;
67528;SDS011;54366;51.980;5.856;2022-12-08T01:06:43;3.72;;;2.90;;
67528;SDS011;54366;51.980;5.856;2022-12-08T01:09:10;3.22;;;2.58;;
67528;SDS011;54366;51.980;5.856;2022-12-08T01:11:38;2.88;;;2.67;;
67528;SDS011;54366;51.980;5.856;2022-12-08T01:14:04;3.70;;;2.80;;
67528;SDS011;54366;51.980;5.856;2022-12-08T01:16:32;4.30;;;2.80;;
67528;SDS011;54366;51.980;5.856;2022-12-08T01:19:00;2.70;;;2.50;;
67528;SDS011;54366;51.980;5.856;2022-12-08T01:21:26;3.13;;;2.53;;
67528;SDS011;54366;51.980;5.856;2022-12-08T01:23:53;3.10;;;2.85;;
67528;SDS011;54366;51.980;5.856;2022-12-08T01:26:20;2.60;;;2.40;;
67528;SDS011;54366;51.980;5.856;2022-12-08T01:28:47;3.15;;;2.85;;
67528;SDS011;54366;51.980;5.856;2022-12-08T01:31:14;3.95;;;3.20;;
67528;SDS011;54366;51.980;5.856;2022-12-08T01:33:42;4.03;;;3.38;;
67528;SDS011;54366;51.980;5.856;2022-12-08T01:36:09;5.65;;;4.75;;
67528;SDS011;54366;51.980;5.856;2022-12-08T01:38:46;4.95;;;4.45;;
67528;SDS011;54366;51.980;5.856;2022-12-08T01:41:14;5.63;;;4.90;;
67528;SDS011;54366;51.980;5.856;2022-12-08T01:46:55;8.93;;;7.00;;
67528;SDS011;54366;51.980;5.856;2022-12-08T01:49:31;6.55;;;5.93;;
67528;SDS011;54366;51.980;5.856;2022-12-08T01:52:11;6.47;;;5.65;;
67528;SDS011;54366;51.980;5.856;2022-12-08T01:54:46;6.90;;;6.18;;
67528;SDS011;54366;51.980;5.856;2022-12-08T01:57:21;6.88;;;6.07;;
67528;SDS011;54366;51.980;5.856;2022-12-08T02:00:00;6.60;;;6.00;;
67528;SDS011;54366;51.980;5.856;2022-12-08T02:02:35;7.20;;;6.50;;
67528;SDS011;54366;51.980;5.856;2022-12-08T02:05:17;7.82;;;7.03;;
67528;SDS011;54366;51.980;5.856;2022-12-08T02:07:47;7.00;;;6.30;;
67528;SDS011;54366;51.980;5.856;2022-12-08T02:10:16;6.72;;;6.13;;
67528;SDS011;54366;51.980;5.856;2022-12-08T02:12:45;7.47;;;6.78;;
67528;SDS011;54366;51.980;5.856;2022-12-08T02:15:13;8.30;;;6.00;;
67528;SDS011;54366;51.980;5.856;2022-12-08T02:17:53;8.07;;;7.30;;
67528;SDS011;54366;51.980;5.856;2022-12-08T02:21:10;8.15;;;6.78;;
67528;SDS011;54366;51.980;5.856;2022-12-08T02:23:52;7.80;;;7.05;;
67528;SDS011;54366;51.980;5.856;2022-12-08T02:26:49;8.52;;;7.68;;
67528;SDS011;54366;51.980;5.856;2022-12-08T02:32:52;9.15;;;8.02;;
67528;SDS011;54366;51.980;5.856;2022-12-08T02:36:29;7.00;;;6.30;;
67528;SDS011;54366;51.980;5.856;2022-12-08T02:38:55;8.07;;;7.38;;
67528;SDS011;54366;51.980;5.856;2022-12-08T02:42:02;7.70;;;6.90;;
67528;SDS011;54366;51.980;5.856;2022-12-08T02:45:37;9.32;;;8.38;;
67528;SDS011;54366;51.980;5.856;2022-12-08T02:47:43;8.75;;;7.35;;
67528;SDS011;54366;51.980;5.856;2022-12-08T02:50:09;8.07;;;7.28;;
67528;SDS011;54366;51.980;5.856;2022-12-08T02:52:37;8.70;;;7.80;;
67528;SDS011;54366;51.980;5.856;2022-12-08T02:55:10;7.63;;;6.97;;
67528;SDS011;54366;51.980;5.856;2022-12-08T03:04:37;8.18;;;7.38;;
67528;SDS011;54366;51.980;5.856;2022-12-08T03:07:43;8.57;;;7.78;;
67528;SDS011;54366;51.980;5.856;2022-12-08T03:10:14;7.30;;;6.60;;
67528;SDS011;54366;51.980;5.856;2022-12-08T03:12:49;7.18;;;6.57;;
67528;SDS011;54366;51.980;5.856;2022-12-08T03:15:21;7.45;;;6.70;;
67528;SDS011;54366;51.980;5.856;2022-12-08T03:17:49;7.65;;;6.95;;
67528;SDS011;54366;51.980;5.856;2022-12-08T03:20:21;6.57;;;6.07;;
67528;SDS011;54366;51.980;5.856;2022-12-08T03:22:50;6.65;;;6.05;;
67528;SDS011;54366;51.980;5.856;2022-12-08T03:25:20;7.68;;;6.88;;
67528;SDS011;54366;51.980;5.856;2022-12-08T03:27:48;7.18;;;6.47;;
67528;SDS011;54366;51.980;5.856;2022-12-08T03:30:16;9.35;;;7.47;;
67528;SDS011;54366;51.980;5.856;2022-12-08T03:32:45;6.32;;;5.72;;
67528;SDS011;54366;51.980;5.856;2022-12-08T03:35:19;7.03;;;6.28;;
67528;SDS011;54366;51.980;5.856;2022-12-08T03:37:49;9.25;;;7.22;;
67528;SDS011;54366;51.980;5.856;2022-12-08T03:40:17;7.75;;;6.07;;
67528;SDS011;54366;51.980;5.856;2022-12-08T03:42:45;5.70;;;5.10;;
67528;SDS011;54366;51.980;5.856;2022-12-08T03:45:11;6.00;;;5.00;;
67528;SDS011;54366;51.980;5.856;2022-12-08T03:47:37;4.50;;;4.10;;
67528;SDS011;54366;51.980;5.856;2022-12-08T03:50:04;5.03;;;4.25;;
67528;SDS011;54366;51.980;5.856;2022-12-08T03:52:31;4.40;;;3.97;;
67528;SDS011;54366;51.980;5.856;2022-12-08T03:54:57;4.65;;;3.90;;
67528;SDS011;54366;51.980;5.856;2022-12-08T03:57:23;4.05;;;3.70;;
67528;SDS011;54366;51.980;5.856;2022-12-08T03:59:49;4.43;;;3.67;;
67528;SDS011;54366;51.980;5.856;2022-12-08T04:02:16;4.05;;;3.20;;
67528;SDS011;54366;51.980;5.856;2022-12-08T04:04:42;3.15;;;2.85;;
67528;SDS011;54366;51.980;5.856;2022-12-08T04:07:08;2.53;;;2.10;;
67528;SDS011;54366;51.980;5.856;2022-12-08T04:09:35;2.70;;;2.50;;
67528;SDS011;54366;51.980;5.856;2022-12-08T04:12:01;2.38;;;2.17;;
67528;SDS011;54366;51.980;5.856;2022-12-08T04:14:27;1.95;;;1.85;;
67528;SDS011;54366;51.980;5.856;2022-12-08T04:16:54;2.08;;;1.83;;
67528;SDS011;54366;51.980;5.856;2022-12-08T04:19:20;2.17;;;1.95;;
67528;SDS011;54366;51.980;5.856;2022-12-08T04:21:46;2.83;;;1.92;;
67528;SDS011;54366;51.980;5.856;2022-12-08T04:24:12;2.83;;;1.48;;
67528;SDS011;54366;51.980;5.856;2022-12-08T04:26:39;2.28;;;1.63;;
67528;SDS011;54366;51.980;5.856;2022-12-08T04:29:05;1.67;;;1.58;;
67528;SDS011;54366;51.980;5.856;2022-12-08T04:31:31;2.67;;;1.90;;
67528;SDS011;54366;51.980;5.856;2022-12-08T04:33:57;2.03;;;1.30;;
67528;SDS011;54366;51.980;5.856;2022-12-08T04:36:24;1.73;;;1.27;;
67528;SDS011;54366;51.980;5.856;2022-12-08T04:38:50;2.35;;;0.80;;
67528;SDS011;54366;51.980;5.856;2022-12-08T04:41:16;1.58;;;1.17;;
67528;SDS011;54366;51.980;5.856;2022-12-08T04:43:42;1.42;;;1.05;;
67528;SDS011;54366;51.980;5.856;2022-12-08T04:46:09;0.80;;;0.80;;
67528;SDS011;54366;51.980;5.856;2022-12-08T04:48:36;2.00;;;1.38;;
67528;SDS011;54366;51.980;5.856;2022-12-08T04:51:03;1.70;;;1.60;;
67528;SDS011;54366;51.980;5.856;2022-12-08T04:53:30;2.42;;;1.90;;
67528;SDS011;54366;51.980;5.856;2022-12-08T04:55:56;1.90;;;1.80;;
67528;SDS011;54366;51.980;5.856;2022-12-08T04:58:23;2.17;;;1.98;;
67528;SDS011;54366;51.980;5.856;2022-12-08T05:00:49;2.40;;;2.20;;
67528;SDS011;54366;51.980;5.856;2022-12-08T05:03:16;2.50;;;2.22;;
67528;SDS011;54366;51.980;5.856;2022-12-08T05:05:42;3.22;;;2.70;;
67528;SDS011;54366;51.980;5.856;2022-12-08T05:08:09;2.08;;;1.98;;
67528;SDS011;54366;51.980;5.856;2022-12-08T05:10:35;3.08;;;2.45;;
67528;SDS011;54366;51.980;5.856;2022-12-08T05:13:02;2.45;;;2.25;;
67528;SDS011;54366;51.980;5.856;2022-12-08T05:15:28;3.63;;;3.30;;
67528;SDS011;54366;51.980;5.856;2022-12-08T05:17:54;3.08;;;2.88;;
67528;SDS011;54366;51.980;5.856;2022-12-08T05:20:21;2.83;;;2.63;;
67528;SDS011;54366;51.980;5.856;2022-12-08T05:22:47;2.67;;;2.47;;
67528;SDS011;54366;51.980;5.856;2022-12-08T05:25:13;3.60;;;3.08;;
67528;SDS011;54366;51.980;5.856;2022-12-08T05:27:40;3.33;;;3.03;;
67528;SDS011;54366;51.980;5.856;2022-12-08T05:30:06;3.38;;;3.08;;
67528;SDS011;54366;51.980;5.856;2022-12-08T05:32:33;3.67;;;3.38;;
67528;SDS011;54366;51.980;5.856;2022-12-08T05:34:59;3.47;;;3.03;;
67528;SDS011;54366;51.980;5.856;2022-12-08T05:37:25;4.43;;;4.00;;
67528;SDS011;54366;51.980;5.856;2022-12-08T05:39:52;4.63;;;3.72;;
67528;SDS011;54366;51.980;5.856;2022-12-08T05:42:18;3.28;;;2.97;;
67528;SDS011;54366;51.980;5.856;2022-12-08T05:44:44;4.20;;;3.65;;
67528;SDS011;54366;51.980;5.856;2022-12-08T05:47:10;3.70;;;2.80;;
67528;SDS011;54366;51.980;5.856;2022-12-08T05:49:36;4.60;;;3.00;;
67528;SDS011;54366;51.980;5.856;2022-12-08T05:52:03;3.95;;;2.78;;
67528;SDS011;54366;51.980;5.856;2022-12-08T05:54:29;2.40;;;2.20;;
67528;SDS011;54366;51.980;5.856;2022-12-08T05:56:56;1.70;;;1.60;;
67528;SDS011;54366;51.980;5.856;2022-12-08T05:59:22;1.75;;;1.50;;
67528;SDS011;54366;51.980;5.856;2022-12-08T06:01:48;1.13;;;0.98;;
67528;SDS011;54366;51.980;5.856;2022-12-08T06:04:15;0.90;;;0.70;;
67528;SDS011;54366;51.980;5.856;2022-12-08T06:06:41;1.33;;;0.70;;
67528;SDS011;54366;51.980;5.856;2022-12-08T06:09:07;1.90;;;0.75;;
67528;SDS011;54366;51.980;5.856;2022-12-08T06:11:34;0.85;;;0.60;;
67528;SDS011;54366;51.980;5.856;2022-12-08T06:14:00;1.45;;;0.50;;
67528;SDS011;54366;51.980;5.856;2022-12-08T06:16:27;0.73;;;0.40;;
67528;SDS011;54366;51.980;5.856;2022-12-08T06:18:54;0.30;;;0.30;;
67528;SDS011;54366;51.980;5.856;2022-12-08T06:21:21;0.38;;;0.30;;
67528;SDS011;54366;51.980;5.856;2022-12-08T06:23:48;0.40;;;0.30;;
67528;SDS011;54366;51.980;5.856;2022-12-08T06:26:16;1.38;;;0.43;;
67528;SDS011;54366;51.980;5.856;2022-12-08T06:28:43;0.70;;;0.25;;
67528;SDS011;54366;51.980;5.856;2022-12-08T06:31:11;1.23;;;0.30;;
67528;SDS011;54366;51.980;5.856;2022-12-08T06:33:42;0.77;;;0.30;;
67528;SDS011;54366;51.980;5.856;2022-12-08T06:36:10;0.98;;;0.40;;
67528;SDS011;54366;51.980;5.856;2022-12-08T06:38:38;0.77;;;0.30;;
67528;SDS011;54366;51.980;5.856;2022-12-08T06:41:05;1.35;;;0.38;;
67528;SDS011;54366;51.980;5.856;2022-12-08T06:43:31;0.55;;;0.30;;
67528;SDS011;54366;51.980;5.856;2022-12-08T06:45:58;1.08;;;0.20;;
67528;SDS011;54366;51.980;5.856;2022-12-08T06:48:25;0.80;;;0.30;;
67528;SDS011;54366;51.980;5.856;2022-12-08T06:50:51;0.65;;;0.30;;
67528;SDS011;54366;51.980;5.856;2022-12-08T06:53:17;0.68;;;0.30;;
67528;SDS011;54366;51.980;5.856;2022-12-08T06:55:44;0.70;;;0.30;;
67528;SDS011;54366;51.980;5.856;2022-12-08T06:58:12;0.40;;;0.30;;
67528;SDS011;54366;51.980;5.856;2022-12-08T07:00:39;0.68;;;0.30;;
67528;SDS011;54366;51.980;5.856;2022-12-08T07:03:06;1.13;;;0.40;;
67528;SDS011;54366;51.980;5.856;2022-12-08T07:05:34;0.82;;;0.50;;
67528;SDS011;54366;51.980;5.856;2022-12-08T07:08:01;1.13;;;0.65;;
67528;SDS011;54366;51.980;5.856;2022-12-08T07:10:27;0.70;;;0.70;;
67528;SDS011;54366;51.980;5.856;2022-12-08T07:12:53;1.13;;;0.60;;
67528;SDS011;54366;51.980;5.856;2022-12-08T07:15:20;1.30;;;0.50;;
67528;SDS011;54366;51.980;5.856;2022-12-08T07:17:46;1.33;;;0.85;;
67528;SDS011;54366;51.980;5.856;2022-12-08T07:20:13;0.80;;;0.80;;
67528;SDS011;54366;51.980;5.856;2022-12-08T07:22:39;1.00;;;0.43;;
67528;SDS011;54366;51.980;5.856;2022-12-08T07:25:06;0.60;;;0.57;;
67528;SDS011;54366;51.980;5.856;2022-12-08T07:27:33;1.38;;;0.70;;
67528;SDS011;54366;51.980;5.856;2022-12-08T07:29:59;0.70;;;0.70;;
67528;SDS011;54366;51.980;5.856;2022-12-08T07:32:25;1.73;;;1.00;;
67528;SDS011;54366;51.980;5.856;2022-12-08T07:34:51;0.93;;;0.80;;
67528;SDS011;54366;51.980;5.856;2022-12-08T07:37:18;1.20;;;0.80;;
67528;SDS011;54366;51.980;5.856;2022-12-08T07:39:45;0.60;;;0.60;;
67528;SDS011;54366;51.980;5.856;2022-12-08T07:42:11;0.95;;;0.88;;
67528;SDS011;54366;51.980;5.856;2022-12-08T07:44:38;0.82;;;0.60;;
67528;SDS011;54366;51.980;5.856;2022-12-08T07:47:04;1.33;;;0.70;;
67528;SDS011;54366;51.980;5.856;2022-12-08T07:49:30;1.65;;;0.98;;
67528;SDS011;54366;51.980;5.856;2022-12-08T07:51:57;1.10;;;1.00;;
67528;SDS011;54366;51.980;5.856;2022-12-08T07:54:23;1.35;;;1.08;;
67528;SDS011;54366;51.980;5.856;2022-12-08T07:56:49;1.00;;;0.73;;
67528;SDS011;54366;51.980;5.856;2022-12-08T07:59:15;0.98;;;0.85;;
67528;SDS011;54366;51.980;5.856;2022-12-08T08:01:42;1.15;;;0.70;;
67528;SDS011;54366;51.980;5.856;2022-12-08T08:04:08;1.00;;;0.70;;
67528;SDS011;54366;51.980;5.856;2022-12-08T08:06:35;1.65;;;1.00;;
67528;SDS011;54366;51.980;5.856;2022-12-08T08:09:02;1.95;;;1.08;;
67528;SDS011;54366;51.980;5.856;2022-12-08T08:11:29;1.80;;;1.20;;
67528;SDS011;54366;51.980;5.856;2022-12-08T08:13:55;1.75;;;1.30;;
67528;SDS011;54366;51.980;5.856;2022-12-08T08:16:22;2.17;;;1.80;;
67528;SDS011;54366;51.980;5.856;2022-12-08T08:18:49;1.40;;;1.30;;
67528;SDS011;54366;51.980;5.856;2022-12-08T08:21:16;2.75;;;1.80;;
67528;SDS011;54366;51.980;5.856;2022-12-08T08:23:43;2.75;;;1.80;;
67528;SDS011;54366;51.980;5.856;2022-12-08T08:26:09;1.40;;;1.20;;
67528;SDS011;54366;51.980;5.856;2022-12-08T08:28:35;1.25;;;1.10;;
67528;SDS011;54366;51.980;5.856;2022-12-08T08:31:02;1.10;;;1.00;;
67528;SDS011;54366;51.980;5.856;2022-12-08T08:33:31;1.85;;;1.10;;
67528;SDS011;54366;51.980;5.856;2022-12-08T08:35:58;2.05;;;1.30;;
67528;SDS011;54366;51.980;5.856;2022-12-08T08:38:24;2.15;;;1.50;;
67528;SDS011;54366;51.980;5.856;2022-12-08T08:40:50;2.78;;;1.85;;
67528;SDS011;54366;51.980;5.856;2022-12-08T08:43:17;2.13;;;1.50;;
67528;SDS011;54366;51.980;5.856;2022-12-08T08:45:56;1.92;;;1.48;;
67528;SDS011;54366;51.980;5.856;2022-12-08T08:48:23;2.17;;;1.00;;
67528;SDS011;54366;51.980;5.856;2022-12-08T08:50:56;1.10;;;0.93;;
67528;SDS011;54366;51.980;5.856;2022-12-08T08:53:23;0.80;;;0.80;;
67528;SDS011;54366;51.980;5.856;2022-12-08T08:55:51;1.20;;;0.93;;
67528;SDS011;54366;51.980;5.856;2022-12-08T08:58:17;1.88;;;1.42;;
67528;SDS011;54366;51.980;5.856;2022-12-08T09:00:43;1.63;;;1.30;;
67528;SDS011;54366;51.980;5.856;2022-12-08T09:03:10;1.17;;;1.08;;
67528;SDS011;54366;51.980;5.856;2022-12-08T09:05:37;1.45;;;0.88;;
67528;SDS011;54366;51.980;5.856;2022-12-08T09:08:04;1.05;;;0.98;;
67528;SDS011;54366;51.980;5.856;2022-12-08T09:10:31;1.73;;;1.25;;
67528;SDS011;54366;51.980;5.856;2022-12-08T09:12:57;1.42;;;1.02;;
67528;SDS011;54366;51.980;5.856;2022-12-08T09:15:23;0.70;;;0.70;;
67528;SDS011;54366;51.980;5.856;2022-12-08T09:17:49;1.70;;;1.40;;
67528;SDS011;54366;51.980;5.856;2022-12-08T09:20:18;1.83;;;1.58;;
67528;SDS011;54366;51.980;5.856;2022-12-08T09:22:45;3.05;;;1.77;;
67528;SDS011;54366;51.980;5.856;2022-12-08T09:25:11;2.30;;;1.90;;
67528;SDS011;54366;51.980;5.856;2022-12-08T09:27:37;1.70;;;1.60;;
67528;SDS011;54366;51.980;5.856;2022-12-08T09:30:04;2.60;;;2.03;;
67528;SDS011;54366;51.980;5.856;2022-12-08T09:32:30;2.33;;;2.13;;
67528;SDS011;54366;51.980;5.856;2022-12-08T09:34:57;3.72;;;2.38;;
67528;SDS011;54366;51.980;5.856;2022-12-08T09:37:24;2.38;;;2.17;;
67528;SDS011;54366;51.980;5.856;2022-12-08T09:39:50;2.28;;;1.90;;
67528;SDS011;54366;51.980;5.856;2022-12-08T09:42:22;3.22;;;2.65;;
67528;SDS011;54366;51.980;5.856;2022-12-08T09:45:13;2.53;;;2.03;;
67528;SDS011;54366;51.980;5.856;2022-12-08T09:47:46;2.30;;;2.10;;
67528;SDS011;54366;51.980;5.856;2022-12-08T09:56:22;2.08;;;1.90;;
67528;SDS011;54366;51.980;5.856;2022-12-08T09:58:51;1.95;;;1.75;;
67528;SDS011;54366;51.980;5.856;2022-12-08T10:01:26;2.10;;;1.80;;
67528;SDS011;54366;51.980;5.856;2022-12-08T10:04:02;2.00;;;1.60;;
67528;SDS011;54366;51.980;5.856;2022-12-08T10:06:40;1.42;;;1.15;;
67528;SDS011;54366;51.980;5.856;2022-12-08T10:09:30;1.33;;;1.08;;
67528;SDS011;54366;51.980;5.856;2022-12-08T10:13:10;1.70;;;0.93;;
67528;SDS011;54366;51.980;5.856;2022-12-08T10:15:25;1.25;;;1.15;;
67528;SDS011;54366;51.980;5.856;2022-12-08T10:18:16;1.17;;;1.08;;
67528;SDS011;54366;51.980;5.856;2022-12-08T10:20:45;1.23;;;1.02;;
67528;SDS011;54366;51.980;5.856;2022-12-08T10:26:02;1.05;;;1.00;;
67528;SDS011;54366;51.980;5.856;2022-12-08T10:28:31;1.67;;;1.40;;
67528;SDS011;54366;51.980;5.856;2022-12-08T10:30:58;1.40;;;1.20;;
67528;SDS011;54366;51.980;5.856;2022-12-08T10:33:25;1.77;;;1.60;;
67528;SDS011;54366;51.980;5.856;2022-12-08T10:35:57;1.60;;;1.50;;
67528;SDS011;54366;51.980;5.856;2022-12-08T10:41:14;2.25;;;2.05;;
67528;SDS011;54366;51.980;5.856;2022-12-08T10:43:43;3.10;;;2.30;;
67528;SDS011;54366;51.980;5.856;2022-12-08T10:46:24;1.70;;;1.60;;
67528;SDS011;54366;51.980;5.856;2022-12-08T10:49:09;1.30;;;1.17;;
67528;SDS011;54366;51.980;5.856;2022-12-08T10:51:41;0.80;;;0.80;;
67528;SDS011;54366;51.980;5.856;2022-12-08T10:54:23;1.00;;;0.88;;
67528;SDS011;54366;51.980;5.856;2022-12-08T10:59:20;2.90;;;2.47;;
67528;SDS011;54366;51.980;5.856;2022-12-08T11:01:47;2.75;;;2.53;;
67528;SDS011;54366;51.980;5.856;2022-12-08T11:04:18;2.35;;;1.80;;
67528;SDS011;54366;51.980;5.856;2022-12-08T11:06:47;2.58;;;1.60;;
67528;SDS011;54366;51.980;5.856;2022-12-08T11:09:38;3.90;;;3.45;;
67528;SDS011;54366;51.980;5.856;2022-12-08T11:14:58;8.50;;;7.70;;
67528;SDS011;54366;51.980;5.856;2022-12-08T11:17:28;8.10;;;4.93;;
67528;SDS011;54366;51.980;5.856;2022-12-08T11:23:03;28.58;;;15.20;;
67528;SDS011;54366;51.980;5.856;2022-12-08T11:25:29;21.40;;;12.73;;
67528;SDS011;54366;51.980;5.856;2022-12-08T11:27:56;8.13;;;4.90;;
67528;SDS011;54366;51.980;5.856;2022-12-08T11:30:25;7.68;;;4.43;;
67528;SDS011;54366;51.980;5.856;2022-12-08T11:33:05;7.45;;;5.05;;
67528;SDS011;54366;51.980;5.856;2022-12-08T11:35:45;8.02;;;5.32;;
67528;SDS011;54366;51.980;5.856;2022-12-08T11:38:17;2.85;;;1.98;;
67528;SDS011;54366;51.980;5.856;2022-12-08T11:40:47;2.88;;;2.25;;
67528;SDS011;54366;51.980;5.856;2022-12-08T11:43:38;4.68;;;2.65;;
67528;SDS011;54366;51.980;5.856;2022-12-08T11:46:16;4.65;;;2.80;;
67528;SDS011;54366;51.980;5.856;2022-12-08T11:51:51;10.52;;;7.03;;
67528;SDS011;54366;51.980;5.856;2022-12-08T11:54:29;6.32;;;4.60;;
67528;SDS011;54366;51.980;5.856;2022-12-08T11:57:06;3.10;;;2.80;;
67528;SDS011;54366;51.980;5.856;2022-12-08T11:59:39;6.55;;;4.57;;
67528;SDS011;54366;51.980;5.856;2022-12-08T12:02:14;7.78;;;5.03;;
67528;SDS011;54366;51.980;5.856;2022-12-08T12:04:53;4.80;;;4.05;;
67528;SDS011;54366;51.980;5.856;2022-12-08T12:10:56;7.30;;;5.00;;
67528;SDS011;54366;51.980;5.856;2022-12-08T12:20:03;2.95;;;1.98;;
67528;SDS011;54366;51.980;5.856;2022-12-08T12:22:40;8.27;;;5.00;;
67528;SDS011;54366;51.980;5.856;2022-12-08T12:25:19;6.45;;;4.10;;
67528;SDS011;54366;51.980;5.856;2022-12-08T12:27:48;4.22;;;3.13;;
67528;SDS011;54366;51.980;5.856;2022-12-08T12:30:20;4.38;;;3.17;;
67528;SDS011;54366;51.980;5.856;2022-12-08T12:35:41;3.20;;;2.00;;
67528;SDS011;54366;51.980;5.856;2022-12-08T12:38:20;3.95;;;3.15;;
67528;SDS011;54366;51.980;5.856;2022-12-08T12:41:11;3.60;;;2.60;;
67528;SDS011;54366;51.980;5.856;2022-12-08T12:43:39;7.10;;;3.90;;
67528;SDS011;54366;51.980;5.856;2022-12-08T12:52:35;5.80;;;3.10;;
67528;SDS011;54366;51.980;5.856;2022-12-08T12:57:50;6.68;;;3.83;;
67528;SDS011;54366;51.980;5.856;2022-12-08T13:00:22;7.43;;;4.22;;
67528;SDS011;54366;51.980;5.856;2022-12-08T13:02:51;3.50;;;2.10;;
67528;SDS011;54366;51.980;5.856;2022-12-08T13:05:24;8.50;;;4.07;;
67528;SDS011;54366;51.980;5.856;2022-12-08T13:08:04;3.15;;;1.58;;
67528;SDS011;54366;51.980;5.856;2022-12-08T13:10:46;7.20;;;3.88;;
67528;SDS011;54366;51.980;5.856;2022-12-08T13:13:25;3.58;;;2.00;;
67528;SDS011;54366;51.980;5.856;2022-12-08T13:15:58;4.70;;;2.50;;
67528;SDS011;54366;51.980;5.856;2022-12-08T13:18:46;2.75;;;1.40;;
67528;SDS011;54366;51.980;5.856;2022-12-08T13:21:15;2.25;;;0.70;;
67528;SDS011;54366;51.980;5.856;2022-12-08T13:23:50;10.63;;;5.32;;
67528;SDS011;54366;51.980;5.856;2022-12-08T13:30:30;6.72;;;3.95;;
67528;SDS011;54366;51.980;5.856;2022-12-08T13:32:56;3.97;;;1.98;;
67528;SDS011;54366;51.980;5.856;2022-12-08T13:35:25;2.72;;;1.05;;
67528;SDS011;54366;51.980;5.856;2022-12-08T13:37:52;2.35;;;1.70;;
67528;SDS011;54366;51.980;5.856;2022-12-08T13:40:21;1.15;;;0.70;;
67528;SDS011;54366;51.980;5.856;2022-12-08T13:42:56;2.00;;;1.20;;
67528;SDS011;54366;51.980;5.856;2022-12-08T13:45:35;1.08;;;0.73;;
67528;SDS011;54366;51.980;5.856;2022-12-08T13:48:06;2.47;;;1.45;;
67528;SDS011;54366;51.980;5.856;2022-12-08T13:50:51;4.85;;;2.60;;
67528;SDS011;54366;51.980;5.856;2022-12-08T13:53:26;1.80;;;0.98;;
67528;SDS011;54366;51.980;5.856;2022-12-08T13:55:58;3.20;;;1.42;;
67528;SDS011;54366;51.980;5.856;2022-12-08T13:58:30;0.80;;;0.40;;
67528;SDS011;54366;51.980;5.856;2022-12-08T14:03:55;1.60;;;0.70;;
67528;SDS011;54366;51.980;5.856;2022-12-08T14:06:35;2.40;;;1.30;;
67528;SDS011;54366;51.980;5.856;2022-12-08T14:09:09;2.65;;;2.45;;
67528;SDS011;54366;51.980;5.856;2022-12-08T14:11:40;2.58;;;2.25;;
67528;SDS011;54366;51.980;5.856;2022-12-08T14:17:05;1.60;;;1.50;;
67528;SDS011;54366;51.980;5.856;2022-12-08T14:19:36;1.85;;;0.93;;
67528;SDS011;54366;51.980;5.856;2022-12-08T14:22:12;0.77;;;0.75;;
67528;SDS011;54366;51.980;5.856;2022-12-08T14:24:48;0.60;;;0.50;;
67528;SDS011;54366;51.980;5.856;2022-12-08T14:27:23;0.70;;;0.70;;
67528;SDS011;54366;51.980;5.856;2022-12-08T14:29:55;2.10;;;1.48;;
67528;SDS011;54366;51.980;5.856;2022-12-08T14:32:32;1.10;;;0.98;;
67528;SDS011;54366;51.980;5.856;2022-12-08T14:37:55;0.80;;;0.40;;
67528;SDS011;54366;51.980;5.856;2022-12-08T14:40:31;1.38;;;0.45;;
67528;SDS011;54366;51.980;5.856;2022-12-08T14:45:50;0.50;;;0.50;;
67528;SDS011;54366;51.980;5.856;2022-12-08T14:51:25;1.02;;;0.77;;
67528;SDS011;54366;51.980;5.856;2022-12-08T14:56:53;1.88;;;0.55;;
67528;SDS011;54366;51.980;5.856;2022-12-08T14:59:24;0.88;;;0.65;;
67528;SDS011;54366;51.980;5.856;2022-12-08T15:02:34;1.10;;;0.70;;
67528;SDS011;54366;51.980;5.856;2022-12-08T15:05:03;1.58;;;1.00;;
67528;SDS011;54366;51.980;5.856;2022-12-08T15:07:43;1.50;;;1.05;;
67528;SDS011;54366;51.980;5.856;2022-12-08T15:10:25;2.35;;;1.42;;
67528;SDS011;54366;51.980;5.856;2022-12-08T15:12:59;3.30;;;2.22;;
67528;SDS011;54366;51.980;5.856;2022-12-08T15:15:56;3.13;;;2.28;;
67528;SDS011;54366;51.980;5.856;2022-12-08T15:18:35;2.67;;;2.22;;
67528;SDS011;54366;51.980;5.856;2022-12-08T15:21:04;2.25;;;1.80;;
67528;SDS011;54366;51.980;5.856;2022-12-08T15:23:35;1.98;;;1.60;;
67528;SDS011;54366;51.980;5.856;2022-12-08T15:26:07;1.40;;;1.30;;
67528;SDS011;54366;51.980;5.856;2022-12-08T15:28:33;1.95;;;1.85;;
67528;SDS011;54366;51.980;5.856;2022-12-08T15:30:59;1.75;;;1.65;;
67528;SDS011;54366;51.980;5.856;2022-12-08T15:33:26;2.10;;;1.90;;
67528;SDS011;54366;51.980;5.856;2022-12-08T15:35:52;2.15;;;2.05;;
67528;SDS011;54366;51.980;5.856;2022-12-08T15:38:23;1.90;;;1.80;;
67528;SDS011;54366;51.980;5.856;2022-12-08T15:40:52;2.33;;;2.15;;
67528;SDS011;54366;51.980;5.856;2022-12-08T15:43:18;1.88;;;1.77;;
67528;SDS011;54366;51.980;5.856;2022-12-08T15:45:45;3.33;;;2.33;;
67528;SDS011;54366;51.980;5.856;2022-12-08T15:48:14;6.80;;;6.20;;
67528;SDS011;54366;51.980;5.856;2022-12-08T15:50:51;6.57;;;5.97;;
67528;SDS011;54366;51.980;5.856;2022-12-08T15:53:19;4.82;;;4.43;;
67528;SDS011;54366;51.980;5.856;2022-12-08T15:55:45;4.18;;;3.80;;
67528;SDS011;54366;51.980;5.856;2022-12-08T15:58:20;3.63;;;3.33;;
67528;SDS011;54366;51.980;5.856;2022-12-08T16:00:48;3.80;;;3.30;;
67528;SDS011;54366;51.980;5.856;2022-12-08T16:03:19;3.35;;;3.05;;
67528;SDS011;54366;51.980;5.856;2022-12-08T16:05:48;3.13;;;2.83;;
67528;SDS011;54366;51.980;5.856;2022-12-08T16:08:14;3.20;;;3.00;;
67528;SDS011;54366;51.980;5.856;2022-12-08T16:10:43;2.72;;;2.53;;
67528;SDS011;54366;51.980;5.856;2022-12-08T16:13:13;3.10;;;2.80;;
67528;SDS011;54366;51.980;5.856;2022-12-08T16:16:00;2.20;;;2.10;;
67528;SDS011;54366;51.980;5.856;2022-12-08T16:18:30;3.38;;;3.08;;
67528;SDS011;54366;51.980;5.856;2022-12-08T16:20:59;3.40;;;3.10;;
67528;SDS011;54366;51.980;5.856;2022-12-08T16:23:26;3.45;;;3.20;;
67528;SDS011;54366;51.980;5.856;2022-12-08T16:25:53;3.47;;;3.17;;
67528;SDS011;54366;51.980;5.856;2022-12-08T16:28:19;3.45;;;3.13;;
67528;SDS011;54366;51.980;5.856;2022-12-08T16:30:46;3.33;;;3.03;;